createdAt,value
2022-10-22T00:01:28.582Z,12.95
2022-10-22T00:05:44.776Z,13.09
2022-10-22T00:10:01.094Z,12.95
2022-10-22T00:14:17.611Z,12.88
2022-10-22T00:18:33.737Z,12.69
2022-10-22T00:27:12.476Z,12.68
2022-10-22T00:31:28.609Z,12.86
2022-10-22T00:35:45.336Z,12.58
2022-10-22T00:40:01.498Z,12.51
2022-10-22T00:44:55.055Z,12.56
2022-10-22T00:49:11.250Z,12.94
2022-10-22T00:53:39.909Z,12.56
2022-10-22T00:57:57.731Z,12.74
2022-10-22T01:02:13.910Z,12.81
2022-10-22T01:06:34.851Z,13.00
2022-10-22T01:11:17.467Z,12.68
2022-10-22T01:15:46.086Z,12.48
2022-10-22T01:20:29.647Z,12.53
2022-10-22T01:24:49.285Z,12.52
2022-10-22T01:29:19.121Z,12.48
2022-10-22T01:33:36.568Z,12.38
2022-10-22T01:37:59.607Z,12.37
2022-10-22T01:42:15.760Z,12.59
2022-10-22T01:46:32.636Z,12.64
2022-10-22T01:51:03.985Z,12.37
2022-10-22T01:55:29.040Z,12.28
2022-10-22T01:59:50.848Z,12.34
2022-10-22T02:04:19.181Z,12.52
2022-10-22T02:08:36.027Z,12.39
2022-10-22T02:12:54.890Z,12.50
2022-10-22T02:17:16.166Z,12.48
2022-10-22T02:21:32.458Z,12.38
2022-10-22T02:25:51.887Z,12.27
2022-10-22T02:34:37.769Z,12.24
2022-10-22T02:38:54.550Z,12.44
2022-10-22T02:43:11.011Z,12.37
2022-10-22T02:47:27.229Z,12.18
2022-10-22T02:51:43.466Z,12.24
2022-10-22T02:56:00.394Z,12.08
2022-10-22T03:00:17.059Z,11.88
2022-10-22T03:04:33.252Z,12.05
2022-10-22T03:08:49.508Z,11.83
2022-10-22T03:13:05.667Z,11.77
2022-10-22T03:17:21.775Z,11.79
2022-10-22T03:21:52.313Z,11.63
2022-10-22T03:26:08.824Z,11.78
2022-10-22T03:30:24.956Z,11.92
2022-10-22T03:34:41.145Z,11.93
2022-10-22T03:38:57.211Z,11.73
2022-10-22T03:43:13.525Z,11.49
2022-10-22T03:47:29.601Z,11.41
2022-10-22T03:51:45.729Z,11.27
2022-10-22T03:56:01.985Z,11.60
2022-10-22T04:00:18.334Z,11.41
2022-10-22T04:04:34.695Z,11.40
2022-10-22T04:08:51.079Z,11.62
2022-10-22T04:13:07.280Z,11.47
2022-10-22T04:17:23.495Z,11.73
2022-10-22T04:21:39.597Z,11.57
2022-10-22T04:26:00.500Z,11.35
2022-10-22T04:30:16.744Z,11.01
2022-10-22T04:34:32.818Z,10.87
2022-10-22T04:38:52.890Z,11.00
2022-10-22T04:43:09.032Z,11.18
2022-10-22T04:47:25.276Z,10.90
2022-10-22T04:51:41.764Z,11.07
2022-10-22T04:56:11.673Z,10.82
2022-10-22T05:00:28.006Z,10.90
2022-10-22T05:04:45.308Z,10.77
2022-10-22T05:09:04.083Z,10.76
2022-10-22T05:13:20.406Z,10.61
2022-10-22T05:17:37.768Z,10.69
2022-10-22T05:21:56.037Z,10.55
2022-10-22T05:26:14.014Z,10.86
2022-10-22T05:30:30.253Z,10.94
2022-10-22T05:34:46.371Z,10.69
2022-10-22T05:39:02.555Z,10.82
2022-10-22T05:43:18.722Z,10.02
2022-10-22T05:47:34.879Z,10.28
2022-10-22T05:51:51.043Z,10.45
2022-10-22T05:56:11.151Z,10.46
2022-10-22T06:00:27.351Z,10.58
2022-10-22T06:04:43.595Z,10.63
2022-10-22T06:09:03.332Z,10.47
2022-10-22T06:13:19.446Z,10.58
2022-10-22T06:17:35.566Z,10.65
2022-10-22T06:21:51.706Z,10.89
2022-10-22T06:26:09.247Z,10.89
2022-10-22T06:30:25.527Z,11.06
2022-10-22T06:34:41.656Z,11.38
2022-10-22T06:38:57.927Z,11.70
2022-10-22T06:43:14.824Z,10.35
2022-10-22T06:47:33.591Z,11.09
2022-10-22T06:51:53.922Z,11.94
2022-10-22T06:56:15.513Z,12.24
2022-10-22T07:04:47.826Z,12.14
2022-10-22T07:09:04.296Z,11.63
2022-10-22T07:13:21.255Z,11.91
2022-10-22T07:17:37.398Z,12.10
2022-10-22T07:21:54.640Z,12.02
2022-10-22T07:26:14.199Z,11.57
2022-10-22T07:30:30.438Z,12.02
2022-10-22T07:34:46.548Z,11.89
2022-10-22T07:39:03.736Z,12.39
2022-10-22T07:43:20.226Z,12.54
2022-10-22T07:47:36.671Z,11.57
2022-10-22T07:51:52.880Z,11.56
2022-10-22T07:56:09.228Z,12.40
2022-10-22T08:00:25.575Z,12.13
2022-10-22T08:04:42.253Z,12.63
2022-10-22T08:08:58.434Z,12.39
2022-10-22T08:13:15.427Z,12.73
2022-10-22T08:17:31.608Z,13.45
2022-10-22T08:21:48.387Z,13.87
2022-10-22T08:26:04.968Z,13.26
2022-10-22T08:30:21.463Z,13.71
2022-10-22T08:34:37.573Z,14.44
2022-10-22T08:38:54.063Z,14.21
2022-10-22T08:43:16.350Z,14.36
2022-10-22T08:47:59.979Z,14.76
2022-10-22T08:52:19.069Z,14.18
2022-10-22T08:56:37.007Z,13.28
2022-10-22T09:01:18.335Z,13.88
2022-10-22T09:10:13.311Z,14.22
2022-10-22T09:14:30.167Z,14.30
2022-10-22T09:19:08.415Z,14.41
2022-10-22T09:23:40.141Z,14.65
2022-10-22T09:27:58.818Z,15.10
2022-10-22T09:32:18.690Z,15.29
2022-10-22T09:36:36.239Z,15.48
2022-10-22T09:40:54.570Z,15.88
2022-10-22T09:45:26.963Z,16.11
2022-10-22T09:49:43.386Z,16.21
2022-10-22T09:54:02.124Z,15.83
2022-10-22T09:58:19.078Z,16.34
2022-10-22T10:02:38.747Z,16.43
2022-10-22T10:07:00.021Z,16.61
2022-10-22T10:11:43.629Z,16.66
2022-10-22T10:16:29.230Z,16.81
2022-10-22T10:21:10.930Z,17.01
2022-10-22T10:25:36.339Z,17.06
2022-10-22T10:30:14.194Z,16.56
2022-10-22T10:35:20.145Z,17.01
2022-10-22T10:39:44.921Z,17.25
2022-10-22T10:44:16.046Z,17.25
2022-10-22T10:48:55.971Z,17.13
2022-10-22T10:53:33.916Z,17.20
2022-10-22T10:58:19.689Z,17.43
2022-10-22T11:03:03.802Z,16.85
2022-10-22T11:07:35.264Z,17.11
2022-10-22T11:12:01.118Z,16.94
2022-10-22T11:16:37.515Z,17.13
2022-10-22T11:20:57.427Z,17.37
2022-10-22T11:25:13.550Z,17.21
2022-10-22T11:29:41.202Z,17.05
2022-10-22T11:34:32.582Z,15.93
2022-10-22T11:38:50.215Z,16.85
2022-10-22T11:43:11.277Z,17.04
2022-10-22T11:47:33.272Z,17.19
2022-10-22T11:51:50.172Z,17.16
2022-10-22T11:56:10.882Z,17.35
2022-10-22T12:00:48.285Z,15.69
2022-10-22T12:05:33.455Z,15.56
2022-10-22T12:14:45.784Z,16.28
2022-10-22T12:19:23.476Z,16.64
2022-10-22T12:23:39.595Z,16.62
2022-10-22T12:28:00.025Z,16.92
2022-10-22T12:32:17.067Z,16.51
2022-10-22T12:36:36.014Z,15.96
2022-10-22T12:40:55.775Z,15.47
2022-10-22T12:45:11.971Z,16.00
2022-10-22T12:49:38.907Z,15.97
2022-10-22T12:54:02.363Z,16.10
2022-10-22T12:58:20.375Z,16.09
2022-10-22T13:02:36.430Z,16.47
2022-10-22T13:07:17.009Z,16.39
2022-10-22T13:11:41.589Z,16.70
2022-10-22T13:16:12.687Z,16.73
2022-10-22T13:20:29.020Z,16.10
2022-10-22T13:24:51.616Z,16.57
2022-10-22T13:29:12.711Z,15.94
2022-10-22T13:33:42.659Z,15.63
2022-10-22T13:37:59.515Z,15.85
2022-10-22T13:42:15.623Z,15.66
2022-10-22T13:46:32.252Z,16.16
2022-10-22T13:50:51.957Z,16.23
2022-10-22T13:55:29.478Z,15.54
2022-10-22T13:59:45.710Z,15.72
2022-10-22T14:04:04.781Z,15.52
2022-10-22T14:08:23.294Z,15.79
2022-10-22T14:12:39.389Z,15.09
2022-10-22T14:16:55.480Z,15.49
2022-10-22T14:21:13.492Z,15.25
2022-10-22T14:25:31.891Z,15.00
2022-10-22T14:29:48.075Z,15.21
2022-10-22T14:34:04.173Z,14.99
2022-10-22T14:38:20.845Z,14.71
2022-10-22T14:42:42.956Z,14.90
2022-10-22T14:46:59.333Z,14.43
2022-10-22T14:51:17.810Z,14.35
2022-10-22T14:55:34.359Z,14.54
2022-10-22T14:59:50.661Z,14.18
2022-10-22T15:04:06.778Z,14.01
2022-10-22T15:08:22.975Z,14.00
2022-10-22T15:12:39.268Z,13.64
2022-10-22T15:16:55.333Z,13.53
2022-10-22T15:21:19.937Z,13.42
2022-10-22T15:25:36.051Z,13.55
2022-10-22T15:29:52.275Z,13.21
2022-10-22T15:34:08.412Z,13.26
2022-10-22T15:42:46.858Z,12.60
2022-10-22T15:47:07.498Z,12.77
2022-10-22T15:51:24.292Z,12.39
2022-10-22T15:55:40.753Z,13.05
2022-10-22T15:59:56.939Z,13.36
2022-10-22T16:04:13.565Z,13.50
2022-10-22T16:08:30.095Z,12.97
2022-10-22T16:12:46.594Z,12.88
2022-10-22T16:17:02.723Z,13.07
2022-10-22T16:21:20.611Z,13.30
2022-10-22T16:25:43.760Z,13.13
2022-10-22T16:29:59.912Z,13.42
2022-10-22T16:34:16.057Z,13.08
2022-10-22T16:38:32.247Z,13.08
2022-10-22T16:42:48.671Z,12.97
2022-10-22T16:47:04.811Z,13.03
2022-10-22T16:51:23.886Z,12.85
2022-10-22T16:55:41.291Z,12.83
2022-10-22T16:59:57.756Z,12.76
2022-10-22T17:04:14.276Z,13.00
2022-10-22T17:08:31.077Z,13.15
2022-10-22T17:12:48.314Z,13.17
2022-10-22T17:17:04.446Z,13.28
2022-10-22T17:21:21.289Z,13.10
2022-10-22T17:25:42.994Z,12.98
2022-10-22T17:29:59.095Z,12.95
2022-10-22T17:34:19.068Z,12.91
2022-10-22T17:38:35.643Z,13.22
2022-10-22T17:42:51.829Z,13.11
2022-10-22T17:47:08.016Z,12.83
2022-10-22T17:51:25.060Z,12.75
2022-10-22T17:55:41.764Z,12.95
2022-10-22T17:59:57.892Z,12.90
2022-10-22T18:04:19.446Z,12.89
2022-10-22T18:08:36.245Z,13.08
2022-10-22T18:12:52.478Z,12.68
2022-10-22T18:17:08.773Z,12.80
2022-10-22T18:21:27.983Z,12.33
2022-10-22T18:25:44.263Z,12.59
2022-10-22T18:30:00.410Z,12.85
2022-10-22T18:34:21.591Z,12.87
2022-10-22T18:38:40.216Z,13.05
2022-10-22T18:42:56.917Z,12.62
2022-10-22T18:47:13.127Z,12.75
2022-10-22T18:51:31.730Z,12.76
2022-10-22T18:55:47.906Z,13.14
2022-10-22T19:00:05.131Z,12.77
2022-10-22T19:04:21.315Z,13.15
2022-10-22T19:08:38.029Z,12.82
2022-10-22T19:12:54.664Z,13.07
2022-10-22T19:17:10.866Z,12.82
2022-10-22T19:21:27.036Z,13.26
2022-10-22T19:25:43.270Z,12.73
2022-10-22T19:29:59.399Z,12.90
2022-10-22T19:34:20.159Z,12.86
2022-10-22T19:38:40.794Z,12.88
2022-10-22T19:42:57.109Z,13.01
2022-10-22T19:47:13.334Z,12.54
2022-10-22T19:51:30.693Z,12.23
2022-10-22T19:55:47.078Z,12.93
2022-10-22T20:00:03.760Z,12.66
2022-10-22T20:04:20.061Z,12.50
2022-10-22T20:08:40.059Z,12.02
2022-10-22T20:12:56.276Z,12.43
2022-10-22T20:17:12.869Z,12.30
2022-10-22T20:21:29.443Z,12.73
2022-10-22T20:25:47.862Z,12.28
2022-10-22T20:30:06.020Z,12.72
2022-10-22T20:34:22.330Z,12.13
2022-10-22T20:38:38.555Z,12.65
2022-10-22T20:42:54.644Z,12.56
2022-10-22T20:47:12.620Z,12.76
2022-10-22T20:51:29.523Z,13.09
2022-10-22T20:55:46.067Z,12.96
2022-10-22T21:00:02.252Z,13.03
2022-10-22T21:04:20.012Z,13.07
2022-10-22T21:08:36.131Z,13.01
2022-10-22T21:12:52.380Z,12.83
2022-10-22T21:17:08.836Z,13.17
2022-10-22T21:21:25.052Z,13.30
2022-10-22T21:25:43.380Z,13.17
2022-10-22T21:30:00.653Z,13.18
2022-10-22T21:34:17.871Z,12.87
2022-10-22T21:38:35.201Z,13.12
2022-10-22T21:42:51.588Z,13.15
2022-10-22T21:47:07.949Z,13.20
2022-10-22T21:51:25.732Z,13.33
2022-10-22T21:55:42.018Z,13.30
2022-10-22T21:59:58.225Z,12.50
2022-10-22T22:04:14.375Z,12.18
2022-10-22T22:08:30.783Z,12.27
2022-10-22T22:12:47.087Z,12.16
2022-10-22T22:17:03.220Z,12.43
2022-10-22T22:21:21.355Z,12.50
2022-10-22T22:25:37.563Z,11.94
2022-10-22T22:29:54.792Z,12.59
2022-10-22T22:34:16.799Z,12.44
2022-10-22T22:38:33.238Z,12.22
2022-10-22T22:42:49.850Z,12.14
2022-10-22T22:47:06.118Z,12.57
2022-10-22T22:51:22.309Z,12.66
2022-10-22T22:55:38.447Z,12.68
2022-10-22T22:59:54.659Z,11.86
2022-10-22T23:04:22.783Z,12.53
2022-10-22T23:08:39.223Z,12.36
2022-10-22T23:12:55.375Z,12.31
2022-10-22T23:17:11.524Z,12.24
2022-10-22T23:21:30.431Z,12.59
2022-10-22T23:25:46.597Z,12.25
2022-10-22T23:30:02.904Z,12.55
2022-10-22T23:34:21.358Z,12.00
2022-10-22T23:38:39.410Z,12.23
2022-10-22T23:42:55.678Z,12.55
2022-10-22T23:47:11.932Z,12.42
2022-10-22T23:51:28.548Z,12.43
2022-10-22T23:55:45.405Z,12.43
